Terminal Aerodrome Forecast
Issued by NWS Topeka, KS

Home | Current Version | Previous Version | Graphics & Text | Print | Product List | Glossary On
Versions: 1 2 3 4 5 6 7 8 9 10 11 12 13
000
FTUS43 KTOP 251700
TAFTOP
TAF
KTOP 251727Z 2518/2618 22010G18KT P6SM BKN100
     FM252300 33018G25KT P6SM VCSH BKN035
     FM260100 34020G28KT 6SM -SN OVC025
     FM260300 36022G30KT P6SM OVC015
     FM261400 34014G22KT P6SM BKN020=

USA.gov is the U.S. government's official web portal to all federal, state and local government web resources and services.